Oak Island, North Carolina
Current Conditions -  °F | °C
As of 7:55 AM on Friday 19 Dec 2014 (Local Time) from KSUT Reporting Station
Clear Clear  
Wind Chill: 38°   Ceiling: Unl
Heat Index: 38°   Visibility: 10mi
Dew Point: 35°   Wind: 3mph
Humidity: 91%   Direction: 20°NNE
Pressure: 30.14"   Gusts: NA
Location:  33.92°N, 78.16°W
Report Text: KSUT 191255Z AUTO 02003KT 10SM CLR 03/02 A3014 RMK AO2 T00310017
Loading
Personal Weather Stations






























Interactive Weather Map New forecast layout! Learn more

10-Day Weather Forecast

Advertisements
Track Severe Weather on mobile